createdAt,value
2022-12-29T00:01:42.903Z,3.47
2022-12-29T00:04:15.298Z,2.83
2022-12-29T00:06:43.542Z,3.63
2022-12-29T00:09:13.518Z,2.35
2022-12-29T00:11:40.446Z,3.92
2022-12-29T00:14:27.844Z,3.63
2022-12-29T00:16:54.553Z,2.85
2022-12-29T00:19:40.506Z,2.67
2022-12-29T00:22:27.838Z,4.57
2022-12-29T00:24:54.559Z,2.25
2022-12-29T00:27:39.627Z,2.60
2022-12-29T00:30:29.574Z,3.63
2022-12-29T00:33:15.032Z,2.83
2022-12-29T00:35:49.441Z,2.38
2022-12-29T00:38:34.585Z,2.10
2022-12-29T00:41:20.056Z,2.67
2022-12-29T00:44:05.470Z,2.20
2022-12-29T00:46:35.910Z,3.28
2022-12-29T00:49:22.263Z,2.83
2022-12-29T00:51:49.309Z,3.05
2022-12-29T00:54:18.185Z,2.35
2022-12-29T00:56:48.583Z,3.55
2022-12-29T00:59:15.553Z,2.70
2022-12-29T01:01:42.917Z,2.88
2022-12-29T01:04:10.333Z,3.15
2022-12-29T01:06:38.759Z,2.95
2022-12-29T01:09:25.189Z,2.97
2022-12-29T01:11:52.158Z,2.20
2022-12-29T01:14:19.872Z,3.60
2022-12-29T01:16:47.417Z,3.05
2022-12-29T01:19:16.028Z,2.47
2022-12-29T01:21:45.607Z,2.90
2022-12-29T01:24:12.363Z,3.33
2022-12-29T01:26:39.094Z,3.15
2022-12-29T01:29:06.103Z,3.53
2022-12-29T01:31:32.895Z,2.85
2022-12-29T01:33:59.684Z,3.30
2022-12-29T01:36:26.414Z,3.53
2022-12-29T01:38:53.284Z,4.55
2022-12-29T01:41:19.970Z,4.45
2022-12-29T01:43:57.502Z,4.78
2022-12-29T01:46:32.282Z,2.92
2022-12-29T01:49:12.935Z,3.47
2022-12-29T01:51:49.608Z,2.88
2022-12-29T01:54:26.809Z,3.60
2022-12-29T01:56:56.471Z,4.22
2022-12-29T01:59:28.727Z,3.25
2022-12-29T02:01:55.893Z,2.65
2022-12-29T02:04:24.767Z,3.00
2022-12-29T02:06:56.513Z,2.17
2022-12-29T02:09:24.521Z,3.95
2022-12-29T02:11:51.819Z,3.85
2022-12-29T02:14:18.647Z,3.47
2022-12-29T02:16:57.613Z,2.22
2022-12-29T02:19:45.812Z,3.42
2022-12-29T02:22:15.455Z,2.60
2022-12-29T02:24:47.716Z,3.35
2022-12-29T02:27:17.239Z,4.60
2022-12-29T02:29:52.796Z,3.08
2022-12-29T02:32:22.287Z,3.88
2022-12-29T02:35:16.813Z,5.18
2022-12-29T02:37:47.874Z,5.55
2022-12-29T02:40:30.556Z,3.90
2022-12-29T02:43:13.339Z,2.53
2022-12-29T02:45:54.642Z,3.55
2022-12-29T02:48:43.335Z,3.70
2022-12-29T02:51:19.461Z,5.15
2022-12-29T02:54:05.988Z,3.97
2022-12-29T02:56:32.719Z,3.83
2022-12-29T02:58:59.383Z,3.90
2022-12-29T03:02:19.833Z,3.97
2022-12-29T03:04:58.742Z,3.17
2022-12-29T03:07:54.140Z,4.63
2022-12-29T03:10:23.529Z,3.63
2022-12-29T03:13:42.281Z,2.95
2022-12-29T03:16:21.918Z,3.63
2022-12-29T03:18:59.589Z,4.85
2022-12-29T03:22:07.468Z,3.42
2022-12-29T03:24:41.780Z,5.18
2022-12-29T03:27:14.065Z,4.40
2022-12-29T03:32:12.596Z,3.88
2022-12-29T03:34:39.876Z,4.57
2022-12-29T03:37:13.815Z,3.05
2022-12-29T03:39:41.807Z,4.28
2022-12-29T03:42:14.678Z,4.05
2022-12-29T03:44:43.786Z,3.10
2022-12-29T03:47:12.821Z,4.80
2022-12-29T03:49:39.884Z,5.50
2022-12-29T03:52:06.650Z,4.80
2022-12-29T03:54:34.050Z,3.35
2022-12-29T03:57:00.911Z,4.97
2022-12-29T03:59:27.574Z,3.85
2022-12-29T04:01:54.361Z,3.80
2022-12-29T04:04:21.163Z,4.43
2022-12-29T04:06:47.828Z,4.00
2022-12-29T04:09:14.694Z,4.05
2022-12-29T04:11:41.416Z,3.85
2022-12-29T04:14:08.111Z,3.85
2022-12-29T04:16:36.739Z,3.17
2022-12-29T04:19:03.741Z,3.72
2022-12-29T04:21:30.466Z,4.15
2022-12-29T04:23:57.162Z,4.15
2022-12-29T04:26:23.901Z,3.95
2022-12-29T04:28:50.678Z,3.80
2022-12-29T04:31:17.448Z,4.78
2022-12-29T04:33:45.425Z,3.50
2022-12-29T04:36:12.153Z,3.50
2022-12-29T04:38:38.854Z,3.72
2022-12-29T04:41:05.752Z,3.03
2022-12-29T04:43:32.437Z,3.65
2022-12-29T04:45:59.124Z,3.78
2022-12-29T04:48:25.809Z,4.55
2022-12-29T04:50:52.539Z,2.80
2022-12-29T04:53:19.456Z,4.53
2022-12-29T04:55:50.291Z,3.45
2022-12-29T04:58:22.350Z,3.75
2022-12-29T05:00:50.663Z,4.38
2022-12-29T05:03:17.708Z,3.40
2022-12-29T05:05:45.081Z,3.67
2022-12-29T05:08:11.778Z,3.65
2022-12-29T05:10:38.922Z,3.75
2022-12-29T05:13:05.629Z,3.72
2022-12-29T05:15:32.341Z,3.55
2022-12-29T05:17:59.032Z,3.65
2022-12-29T05:20:25.781Z,3.90
2022-12-29T05:22:52.470Z,4.80
2022-12-29T05:25:19.291Z,2.95
2022-12-29T05:27:46.002Z,3.42
2022-12-29T05:30:13.211Z,4.57
2022-12-29T05:32:40.652Z,2.85
2022-12-29T05:35:07.836Z,4.30
2022-12-29T05:37:34.656Z,3.50
2022-12-29T05:40:01.391Z,3.05
2022-12-29T05:42:28.056Z,3.15
2022-12-29T05:44:55.049Z,3.80
2022-12-29T05:47:21.853Z,3.58
2022-12-29T05:49:48.536Z,4.20
2022-12-29T05:52:15.349Z,4.05
2022-12-29T05:54:42.012Z,3.08
2022-12-29T05:57:09.314Z,4.65
2022-12-29T05:59:36.050Z,3.60
2022-12-29T06:02:02.890Z,2.20
2022-12-29T06:04:29.652Z,3.58
2022-12-29T06:06:56.341Z,2.17
2022-12-29T06:09:23.029Z,2.00
2022-12-29T06:11:49.923Z,2.88
2022-12-29T06:14:16.606Z,1.95
2022-12-29T06:16:43.979Z,2.60
2022-12-29T06:19:10.840Z,2.00
2022-12-29T06:21:38.603Z,1.98
2022-12-29T06:24:06.381Z,1.58
2022-12-29T06:26:33.059Z,1.30
2022-12-29T06:28:59.738Z,1.65
2022-12-29T06:31:26.526Z,1.42
2022-12-29T06:33:53.988Z,1.00
2022-12-29T06:36:20.731Z,0.98
2022-12-29T06:38:47.548Z,1.02
2022-12-29T06:41:14.215Z,1.38
2022-12-29T06:43:40.910Z,1.20
2022-12-29T06:46:07.611Z,2.05
2022-12-29T06:48:34.286Z,2.03
2022-12-29T06:51:00.990Z,1.35
2022-12-29T06:53:27.711Z,1.52
2022-12-29T06:55:54.686Z,2.33
2022-12-29T06:58:21.413Z,1.02
2022-12-29T07:00:49.396Z,1.25
2022-12-29T07:03:16.161Z,0.73
2022-12-29T07:05:43.919Z,0.90
2022-12-29T07:08:10.622Z,1.33
2022-12-29T07:10:37.354Z,0.77
2022-12-29T07:13:04.019Z,0.85
2022-12-29T07:15:30.778Z,1.25
2022-12-29T07:17:57.567Z,0.50
2022-12-29T07:20:27.046Z,1.20
2022-12-29T07:22:57.090Z,0.70
2022-12-29T07:25:24.217Z,0.50
2022-12-29T07:27:51.094Z,0.65
2022-12-29T07:30:17.973Z,1.38
2022-12-29T07:32:44.646Z,0.73
2022-12-29T07:35:11.348Z,1.60
2022-12-29T07:37:38.020Z,1.10
2022-12-29T07:40:05.354Z,0.77
2022-12-29T07:42:32.705Z,0.95
2022-12-29T07:44:59.368Z,1.08
2022-12-29T07:47:27.212Z,2.08
2022-12-29T07:49:54.181Z,0.70
2022-12-29T07:52:20.907Z,1.08
2022-12-29T07:54:47.743Z,1.08
2022-12-29T07:57:14.492Z,1.05
2022-12-29T07:59:41.172Z,0.70
2022-12-29T08:02:11.440Z,1.15
2022-12-29T08:04:38.328Z,1.65
2022-12-29T08:07:05.058Z,0.95
2022-12-29T08:09:31.775Z,1.20
2022-12-29T08:11:58.443Z,0.88
2022-12-29T08:14:25.155Z,0.95
2022-12-29T08:16:51.817Z,1.85
2022-12-29T08:19:18.628Z,0.50
2022-12-29T08:21:47.965Z,0.85
2022-12-29T08:24:16.708Z,0.75
2022-12-29T08:26:43.406Z,0.80
2022-12-29T08:29:10.158Z,1.15
2022-12-29T08:31:36.973Z,0.70
2022-12-29T08:34:04.407Z,1.38
2022-12-29T08:36:31.811Z,0.93
2022-12-29T08:38:58.612Z,0.50
2022-12-29T08:41:25.371Z,1.38
2022-12-29T08:43:52.072Z,0.80
2022-12-29T08:46:18.917Z,1.05
2022-12-29T08:48:45.731Z,0.95
2022-12-29T08:51:12.496Z,0.88
2022-12-29T08:53:39.564Z,0.80
2022-12-29T08:56:06.765Z,1.00
2022-12-29T08:58:33.509Z,0.98
2022-12-29T09:01:00.438Z,1.00
2022-12-29T09:04:03.792Z,0.40
2022-12-29T09:06:15.911Z,0.95
2022-12-29T09:08:42.603Z,1.05
2022-12-29T09:11:29.238Z,0.75
2022-12-29T09:13:58.865Z,1.58
2022-12-29T09:16:26.037Z,1.27
2022-12-29T09:18:52.807Z,1.60
2022-12-29T09:21:19.576Z,1.08
2022-12-29T09:23:46.268Z,0.90
2022-12-29T09:26:13.034Z,0.90
2022-12-29T09:28:39.964Z,0.70
2022-12-29T09:31:07.003Z,1.48
2022-12-29T09:33:36.738Z,0.70
2022-12-29T09:36:04.526Z,1.27
2022-12-29T09:38:31.724Z,1.35
2022-12-29T09:41:11.675Z,0.98
2022-12-29T09:44:14.239Z,1.95
2022-12-29T09:46:50.625Z,1.30
2022-12-29T09:49:46.853Z,1.45
2022-12-29T09:52:38.340Z,0.70
2022-12-29T09:55:18.398Z,0.73
2022-12-29T09:58:11.284Z,1.23
2022-12-29T10:01:02.679Z,0.80
2022-12-29T10:03:47.783Z,1.50
2022-12-29T10:06:56.227Z,0.73
2022-12-29T10:09:47.717Z,0.60
2022-12-29T10:12:26.796Z,2.28
2022-12-29T10:15:12.440Z,0.85
2022-12-29T10:18:11.820Z,1.02
2022-12-29T10:21:06.503Z,1.17
2022-12-29T10:23:55.213Z,0.55
2022-12-29T10:26:27.429Z,1.02
2022-12-29T10:29:12.304Z,0.73
2022-12-29T10:31:45.167Z,0.50
2022-12-29T10:34:23.952Z,0.57
2022-12-29T10:36:57.859Z,0.82
2022-12-29T10:39:37.781Z,0.50
2022-12-29T10:42:38.605Z,1.02
2022-12-29T10:45:06.565Z,0.98
2022-12-29T10:47:39.133Z,0.52
2022-12-29T10:52:34.275Z,0.60
2022-12-29T10:55:06.141Z,0.82
2022-12-29T10:57:42.488Z,0.50
2022-12-29T11:00:17.314Z,1.25
2022-12-29T11:03:07.473Z,0.40
2022-12-29T11:05:58.180Z,1.05
2022-12-29T11:08:31.223Z,0.57
2022-12-29T11:11:06.498Z,0.85
2022-12-29T11:13:39.268Z,0.93
2022-12-29T11:16:06.605Z,0.50
2022-12-29T11:18:41.159Z,0.70
2022-12-29T11:21:42.949Z,0.50
2022-12-29T11:24:24.684Z,0.80
2022-12-29T11:26:58.086Z,0.82
2022-12-29T11:29:39.731Z,1.02
2022-12-29T11:32:28.713Z,0.68
2022-12-29T11:34:59.825Z,0.85
2022-12-29T11:37:31.484Z,0.70
2022-12-29T11:40:00.322Z,1.23
2022-12-29T11:42:38.730Z,0.77
2022-12-29T11:45:27.407Z,1.20
2022-12-29T11:48:02.100Z,0.95
2022-12-29T11:50:34.427Z,0.98
2022-12-29T11:53:24.874Z,0.73
2022-12-29T11:55:57.603Z,1.17
2022-12-29T11:58:33.542Z,1.17
2022-12-29T12:01:12.139Z,0.80
2022-12-29T12:03:46.713Z,1.70
2022-12-29T12:06:19.223Z,1.33
2022-12-29T12:08:56.189Z,1.63
2022-12-29T12:11:37.150Z,2.42
2022-12-29T12:14:11.053Z,1.27
2022-12-29T12:16:49.719Z,1.48
2022-12-29T12:19:40.879Z,1.77
2022-12-29T12:22:33.709Z,1.95
2022-12-29T12:25:03.056Z,1.58
2022-12-29T12:27:43.061Z,0.98
2022-12-29T12:30:15.614Z,1.45
2022-12-29T12:36:03.251Z,1.40
2022-12-29T12:38:38.805Z,1.67
2022-12-29T12:41:19.722Z,1.55
2022-12-29T12:46:30.845Z,1.42
2022-12-29T12:49:00.816Z,1.73
2022-12-29T12:51:49.263Z,1.20
2022-12-29T12:54:37.131Z,2.08
2022-12-29T12:57:25.747Z,1.95
2022-12-29T13:00:19.090Z,1.45
2022-12-29T13:03:18.399Z,3.28
2022-12-29T13:06:18.766Z,1.13
2022-12-29T13:09:15.782Z,1.63
2022-12-29T13:12:20.191Z,1.55
2022-12-29T13:14:59.164Z,1.88
2022-12-29T13:18:00.647Z,1.58
2022-12-29T13:20:38.019Z,1.83
2022-12-29T13:23:32.480Z,2.03
2022-12-29T13:26:17.296Z,2.45
2022-12-29T13:28:56.042Z,2.80
2022-12-29T13:31:28.817Z,1.38
2022-12-29T13:34:40.929Z,1.63
2022-12-29T13:37:14.984Z,2.08
2022-12-29T13:39:52.406Z,3.05
2022-12-29T13:42:20.747Z,1.50
2022-12-29T13:44:59.199Z,1.38
2022-12-29T13:47:37.480Z,1.77
2022-12-29T13:50:13.347Z,2.35
2022-12-29T13:52:44.754Z,2.63
2022-12-29T13:55:56.113Z,2.53
2022-12-29T13:58:53.608Z,1.60
2022-12-29T14:01:49.942Z,1.25
2022-12-29T14:04:25.571Z,1.55
2022-12-29T14:07:03.664Z,3.10
2022-12-29T14:09:55.072Z,1.75
2022-12-29T14:12:44.733Z,1.67
2022-12-29T14:15:11.397Z,2.40
2022-12-29T14:17:40.309Z,2.15
2022-12-29T14:20:19.101Z,2.28
2022-12-29T14:23:01.481Z,2.05
2022-12-29T14:25:59.060Z,1.65
2022-12-29T14:28:28.995Z,2.00
2022-12-29T14:31:01.671Z,1.85
2022-12-29T14:33:31.881Z,1.17
2022-12-29T14:36:24.937Z,1.88
2022-12-29T14:38:51.923Z,2.28
2022-12-29T14:41:40.209Z,1.50
2022-12-29T14:44:20.404Z,1.08
2022-12-29T14:46:47.106Z,2.45
2022-12-29T14:49:20.959Z,1.90
2022-12-29T14:51:49.205Z,1.65
2022-12-29T14:54:39.140Z,2.03
2022-12-29T14:57:09.283Z,1.50
2022-12-29T14:59:36.723Z,2.22
2022-12-29T15:02:14.282Z,2.05
2022-12-29T15:04:41.238Z,1.52
2022-12-29T15:07:10.862Z,2.78
2022-12-29T15:09:40.080Z,1.40
2022-12-29T15:12:36.482Z,1.67
2022-12-29T15:15:17.416Z,2.70
2022-12-29T15:17:44.119Z,1.67
2022-12-29T15:20:32.463Z,2.95
2022-12-29T15:23:04.027Z,1.55
2022-12-29T15:25:32.166Z,1.92
2022-12-29T15:28:03.251Z,0.90
2022-12-29T15:30:30.013Z,1.92
2022-12-29T15:32:57.284Z,1.85
2022-12-29T15:35:26.869Z,2.80
2022-12-29T15:37:53.588Z,3.05
2022-12-29T15:40:25.140Z,1.80
2022-12-29T15:43:12.200Z,0.93
2022-12-29T15:45:40.050Z,1.10
2022-12-29T15:48:15.557Z,2.30
2022-12-29T15:50:44.129Z,2.10
2022-12-29T15:53:13.659Z,2.55
2022-12-29T15:55:43.072Z,1.52
2022-12-29T15:58:25.497Z,1.90
2022-12-29T16:00:58.881Z,2.75
2022-12-29T16:03:28.522Z,1.50
2022-12-29T16:06:25.589Z,1.83
2022-12-29T16:09:06.562Z,1.40
2022-12-29T16:11:39.753Z,2.00
2022-12-29T16:14:16.232Z,2.20
2022-12-29T16:16:45.547Z,1.70
2022-12-29T16:19:19.163Z,1.60
2022-12-29T16:21:46.941Z,1.60
2022-12-29T16:24:17.480Z,2.60
2022-12-29T16:26:50.684Z,1.45
2022-12-29T16:29:17.997Z,1.60
2022-12-29T16:32:04.045Z,2.70
2022-12-29T16:34:32.806Z,1.67
2022-12-29T16:37:04.430Z,1.85
2022-12-29T16:39:34.751Z,1.67
2022-12-29T16:42:01.674Z,2.50
2022-12-29T16:44:31.368Z,2.45
2022-12-29T16:47:01.099Z,1.83
2022-12-29T16:49:28.370Z,1.58
2022-12-29T16:51:56.258Z,1.70
2022-12-29T16:54:33.452Z,1.63
2022-12-29T16:57:00.662Z,2.20
2022-12-29T16:59:56.270Z,2.20
2022-12-29T17:02:25.340Z,2.08
2022-12-29T17:04:53.836Z,1.73
2022-12-29T17:07:24.264Z,1.90
2022-12-29T17:09:51.370Z,1.23
2022-12-29T17:12:30.576Z,2.75
2022-12-29T17:15:01.932Z,2.25
2022-12-29T17:17:39.359Z,2.35
2022-12-29T17:20:10.776Z,2.50
2022-12-29T17:22:37.523Z,1.75
2022-12-29T17:25:04.669Z,2.13
2022-12-29T17:28:06.395Z,1.30
2022-12-29T17:30:34.910Z,1.77
2022-12-29T17:33:06.157Z,1.48
2022-12-29T17:35:32.843Z,3.45
2022-12-29T17:37:59.514Z,1.38
2022-12-29T17:40:32.558Z,1.70
2022-12-29T17:43:00.266Z,2.22
2022-12-29T17:45:29.601Z,1.40
2022-12-29T17:47:56.774Z,1.42
2022-12-29T17:50:29.783Z,1.50
2022-12-29T17:53:11.685Z,1.63
2022-12-29T17:55:38.931Z,1.30
2022-12-29T17:58:26.361Z,1.70
2022-12-29T18:00:55.575Z,1.67
2022-12-29T18:03:32.134Z,1.17
2022-12-29T18:05:59.385Z,1.83
2022-12-29T18:08:28.493Z,2.50
2022-12-29T18:10:55.610Z,1.10
2022-12-29T18:13:39.015Z,1.83
2022-12-29T18:16:12.163Z,1.42
2022-12-29T18:18:38.886Z,2.50
2022-12-29T18:21:05.698Z,1.88
2022-12-29T18:23:36.468Z,1.33
2022-12-29T18:26:15.279Z,1.90
2022-12-29T18:28:42.049Z,2.45
2022-12-29T18:31:24.210Z,1.95
2022-12-29T18:33:53.190Z,1.88
2022-12-29T18:36:20.731Z,1.98
2022-12-29T18:38:47.866Z,1.73
2022-12-29T18:41:23.773Z,1.65
2022-12-29T18:43:51.075Z,1.95
2022-12-29T18:46:22.794Z,1.98
2022-12-29T18:51:20.399Z,1.90
2022-12-29T18:53:47.596Z,3.38
2022-12-29T18:56:14.631Z,1.67
2022-12-29T18:58:42.015Z,2.88
2022-12-29T19:01:22.784Z,2.42
2022-12-29T19:03:50.054Z,1.73
2022-12-29T19:06:17.100Z,1.65
2022-12-29T19:08:43.934Z,1.92
2022-12-29T19:11:10.773Z,1.98
2022-12-29T19:13:38.124Z,1.88
2022-12-29T19:16:06.493Z,1.77
2022-12-29T19:18:43.726Z,1.80
2022-12-29T19:21:11.621Z,1.80
2022-12-29T19:23:38.510Z,1.67
2022-12-29T19:26:05.524Z,2.70
2022-12-29T19:28:32.419Z,1.75
2022-12-29T19:31:01.338Z,2.40
2022-12-29T19:33:28.716Z,1.55
2022-12-29T19:36:02.505Z,1.90
2022-12-29T19:38:29.384Z,2.13
2022-12-29T19:40:56.518Z,2.20
2022-12-29T19:43:23.253Z,2.30
2022-12-29T19:45:51.411Z,1.98
2022-12-29T19:48:20.851Z,2.17
2022-12-29T19:50:48.530Z,2.15
2022-12-29T19:53:16.059Z,2.20
2022-12-29T19:55:47.236Z,2.00
2022-12-29T19:58:14.740Z,2.67
2022-12-29T20:00:43.135Z,1.30
2022-12-29T20:03:11.047Z,1.75
2022-12-29T20:05:38.898Z,1.60
2022-12-29T20:08:05.723Z,2.13
2022-12-29T20:10:32.495Z,2.50
2022-12-29T20:12:59.258Z,1.30
2022-12-29T20:15:26.021Z,1.83
2022-12-29T20:20:39.383Z,2.92
2022-12-29T20:23:06.390Z,2.88
2022-12-29T20:25:48.610Z,2.05
2022-12-29T20:28:16.883Z,1.83
2022-12-29T20:30:43.983Z,2.08
2022-12-29T20:33:10.754Z,2.13
2022-12-29T20:35:37.736Z,2.03
2022-12-29T20:38:05.101Z,3.05
2022-12-29T20:40:31.997Z,2.40
2022-12-29T20:42:58.697Z,2.10
2022-12-29T20:45:25.690Z,2.25
2022-12-29T20:47:54.760Z,2.85
2022-12-29T20:50:21.517Z,2.30
2022-12-29T20:52:48.237Z,1.90
2022-12-29T20:55:14.980Z,3.00
2022-12-29T20:58:21.930Z,2.45
2022-12-29T21:00:30.575Z,3.00
2022-12-29T21:03:01.646Z,1.63
2022-12-29T21:05:29.477Z,2.10
2022-12-29T21:07:56.342Z,3.28
2022-12-29T21:10:23.350Z,1.95
2022-12-29T21:12:50.124Z,2.22
2022-12-29T21:15:16.797Z,2.55
2022-12-29T21:17:46.528Z,2.05
2022-12-29T21:20:20.080Z,1.73
2022-12-29T21:22:50.042Z,2.15
2022-12-29T21:25:16.889Z,1.98
2022-12-29T21:27:46.240Z,2.30
2022-12-29T21:30:13.873Z,1.65
2022-12-29T21:32:41.522Z,1.83
2022-12-29T21:35:09.718Z,2.47
2022-12-29T21:37:36.972Z,1.90
2022-12-29T21:40:04.634Z,1.70
2022-12-29T21:42:31.726Z,1.70
2022-12-29T21:45:20.743Z,1.65
2022-12-29T21:48:07.207Z,3.22
2022-12-29T21:50:36.668Z,2.28
2022-12-29T21:53:03.344Z,1.58
2022-12-29T21:55:30.065Z,1.50
2022-12-29T21:58:15.140Z,2.38
2022-12-29T22:01:00.633Z,3.17
2022-12-29T22:03:45.853Z,1.50
2022-12-29T22:06:31.213Z,2.10
2022-12-29T22:09:16.839Z,2.53
2022-12-29T22:12:02.271Z,1.55
2022-12-29T22:14:28.941Z,1.63
2022-12-29T22:16:55.635Z,1.95
2022-12-29T22:19:22.428Z,1.30
2022-12-29T22:21:49.113Z,2.95
2022-12-29T22:24:15.825Z,1.92
2022-12-29T22:26:42.576Z,2.05
2022-12-29T22:29:09.325Z,2.13
2022-12-29T22:31:36.045Z,1.92
2022-12-29T22:34:03.734Z,2.10
2022-12-29T22:36:32.231Z,1.60
2022-12-29T22:38:59.101Z,2.15
2022-12-29T22:41:25.779Z,3.08
2022-12-29T22:43:52.536Z,2.90
2022-12-29T22:46:19.763Z,1.70
2022-12-29T22:48:46.567Z,1.95
2022-12-29T22:51:13.847Z,1.65
2022-12-29T22:53:41.254Z,3.03
2022-12-29T22:56:12.266Z,2.00
2022-12-29T22:58:44.401Z,1.42
2022-12-29T23:01:12.466Z,2.63
2022-12-29T23:03:39.918Z,3.10
2022-12-29T23:06:08.290Z,2.13
2022-12-29T23:08:37.294Z,1.52
2022-12-29T23:11:05.934Z,1.98
2022-12-29T23:13:33.054Z,2.08
2022-12-29T23:15:59.853Z,2.08
2022-12-29T23:18:27.311Z,2.80
2022-12-29T23:20:54.101Z,2.03
2022-12-29T23:23:48.499Z,2.22
2022-12-29T23:26:17.588Z,1.67
2022-12-29T23:28:44.976Z,2.00
2022-12-29T23:31:11.836Z,2.08
2022-12-29T23:33:38.645Z,1.88
2022-12-29T23:36:05.933Z,2.00
2022-12-29T23:38:32.643Z,1.83
2022-12-29T23:40:59.800Z,3.65
2022-12-29T23:43:26.749Z,2.78
2022-12-29T23:45:53.410Z,2.47
2022-12-29T23:48:20.188Z,2.20
2022-12-29T23:50:47.224Z,1.73
2022-12-29T23:53:14.015Z,2.30
2022-12-29T23:55:44.215Z,2.30
2022-12-29T23:58:11.550Z,2.40
